Time;durP1;ratioP1;P1;durP2;ratioP2;P2;SDS_P1;SDS_P2;PMS_P1;PMS_P2;Temp;Humidity;BMP_temperature;BMP_pressure;BME280_temperature;BME280_humidity;BME280_pressure;Samples;Min_cycle;Max_cycle;Signal;HPM_P1;HPM_P2
2021/10/24 00:01:07;;;;;;;3.25;0.93;;;;;;;;;;5065210;28;20083;-82
2021/10/24 00:03:34;;;;;;;2.95;1.15;;;;;;;;;;5067133;28;20054;-82
2021/10/24 00:06:00;;;;;;;1.88;0.98;;;;;;;;;;5063958;28;20025;-83
2021/10/24 00:08:27;;;;;;;3.03;1.00;;;;;;;;;;5061208;28;20056;-81
2021/10/24 00:10:53;;;;;;;3.45;1.08;;;;;;;;;;5060589;28;20056;-82
2021/10/24 00:13:19;;;;;;;3.72;1.52;;;;;;;;;;5062173;28;20063;-82
2021/10/24 00:15:46;;;;;;;3.38;1.05;;;;;;;;;;5064034;28;20453;-82
2021/10/24 00:18:13;;;;;;;3.53;1.00;;;;;;;;;;5067030;28;20075;-82
2021/10/24 00:20:39;;;;;;;3.22;1.00;;;;;;;;;;5062967;28;20060;-82
2021/10/24 00:23:06;;;;;;;2.50;0.88;;;;;;;;;;5064934;28;20061;-83
2021/10/24 00:25:32;;;;;;;3.08;1.08;;;;;;;;;;5064832;28;20056;-82
2021/10/24 00:27:59;;;;;;;3.33;1.10;;;;;;;;;;5070235;28;20040;-82
2021/10/24 00:30:25;;;;;;;2.45;1.20;;;;;;;;;;5074289;28;20058;-82
2021/10/24 00:32:52;;;;;;;2.10;0.90;;;;;;;;;;5065212;28;22483;-82
2021/10/24 00:35:18;;;;;;;2.35;1.10;;;;;;;;;;5066354;28;20496;-82
2021/10/24 00:37:45;;;;;;;2.22;0.90;;;;;;;;;;5069080;28;20071;-83
2021/10/24 00:40:11;;;;;;;2.90;1.17;;;;;;;;;;5071016;28;20076;-83
2021/10/24 00:42:44;;;;;;;5.95;1.20;;;;;;;;;;5067143;28;20109;-82
2021/10/24 00:45:11;;;;;;;3.10;1.13;;;;;;;;;;5062023;28;20056;-83
2021/10/24 00:47:37;;;;;;;3.53;1.23;;;;;;;;;;5074592;28;20057;-83
2021/10/24 00:50:03;;;;;;;2.28;0.90;;;;;;;;;;5073533;28;20524;-83
2021/10/24 00:52:30;;;;;;;3.30;1.10;;;;;;;;;;5065571;28;20032;-83
2021/10/24 00:54:56;;;;;;;3.35;1.00;;;;;;;;;;5070996;28;20037;-83
2021/10/24 00:57:23;;;;;;;4.68;1.30;;;;;;;;;;5065653;28;20729;-83
2021/10/24 00:59:49;;;;;;;2.10;0.90;;;;;;;;;;5074836;28;20122;-84
2021/10/24 01:02:16;;;;;;;2.83;0.80;;;;;;;;;;5066897;28;20125;-83
2021/10/24 01:04:43;;;;;;;2.28;0.90;;;;;;;;;;5070629;28;20060;-83
2021/10/24 01:07:10;;;;;;;3.15;0.90;;;;;;;;;;5068542;28;20603;-83
2021/10/24 01:09:37;;;;;;;1.58;0.65;;;;;;;;;;5065586;28;20064;-84
2021/10/24 01:12:03;;;;;;;1.83;1.00;;;;;;;;;;5071036;28;20052;-83
2021/10/24 01:14:30;;;;;;;2.83;0.93;;;;;;;;;;5067319;28;20056;-83
2021/10/24 01:16:56;;;;;;;2.35;0.98;;;;;;;;;;5066976;28;20141;-83
2021/10/24 01:19:23;;;;;;;2.22;0.95;;;;;;;;;;5069254;28;20072;-83
2021/10/24 01:21:50;;;;;;;2.35;1.02;;;;;;;;;;5069500;28;20060;-84
2021/10/24 01:24:16;;;;;;;2.55;0.90;;;;;;;;;;5070345;28;20067;-84
2021/10/24 01:26:43;;;;;;;2.90;0.90;;;;;;;;;;5068668;28;20074;-83
2021/10/24 01:29:10;;;;;;;3.00;1.00;;;;;;;;;;5072850;28;20036;-83
2021/10/24 01:31:36;;;;;;;1.98;0.88;;;;;;;;;;5069584;28;20052;-84
2021/10/24 01:34:04;;;;;;;2.55;1.17;;;;;;;;;;5070593;28;20033;-84
2021/10/24 01:36:31;;;;;;;3.05;1.00;;;;;;;;;;5069742;28;20060;-84
2021/10/24 01:38:57;;;;;;;3.35;0.98;;;;;;;;;;5075309;28;20500;-83
2021/10/24 01:41:24;;;;;;;2.25;1.02;;;;;;;;;;5071591;28;20075;-83
2021/10/24 01:43:52;;;;;;;2.90;1.02;;;;;;;;;;5072742;28;20618;-82
2021/10/24 01:46:18;;;;;;;2.25;0.90;;;;;;;;;;5065325;28;20063;-82
2021/10/24 01:48:45;;;;;;;2.67;1.00;;;;;;;;;;5066807;28;20072;-82
2021/10/24 01:51:12;;;;;;;2.83;0.90;;;;;;;;;;5067987;28;20078;-82
2021/10/24 01:53:39;;;;;;;2.50;1.00;;;;;;;;;;5062672;28;20051;-82
2021/10/24 01:56:06;;;;;;;2.20;0.98;;;;;;;;;;5068833;28;20063;-83
2021/10/24 01:58:33;;;;;;;4.07;1.00;;;;;;;;;;5069230;28;20566;-82
2021/10/24 02:00:59;;;;;;;2.58;0.82;;;;;;;;;;5066802;28;20079;-82
2021/10/24 02:03:25;;;;;;;2.15;1.02;;;;;;;;;;5066889;28;20417;-82
2021/10/24 02:05:52;;;;;;;2.58;0.80;;;;;;;;;;5067020;28;20186;-83
2021/10/24 02:08:20;;;;;;;2.60;0.82;;;;;;;;;;5068269;28;20085;-82
2021/10/24 02:10:46;;;;;;;2.90;1.00;;;;;;;;;;5067270;28;20063;-82
2021/10/24 02:13:13;;;;;;;3.60;1.17;;;;;;;;;;5067275;28;20082;-82
2021/10/24 02:15:39;;;;;;;2.65;1.05;;;;;;;;;;5065477;28;20425;-82
2021/10/24 02:18:09;;;;;;;2.30;0.93;;;;;;;;;;5051468;28;20028;-83
2021/10/24 02:20:36;;;;;;;4.35;1.08;;;;;;;;;;5058735;28;20047;-83
2021/10/24 02:23:04;;;;;;;3.33;1.38;;;;;;;;;;5077303;28;20064;-83
2021/10/24 02:25:32;;;;;;;1.85;0.80;;;;;;;;;;5060523;28;20059;-83
2021/10/24 02:27:59;;;;;;;4.00;1.05;;;;;;;;;;5071651;28;20064;-83
2021/10/24 02:30:25;;;;;;;1.70;0.80;;;;;;;;;;5065464;28;20052;-82
2021/10/24 02:32:52;;;;;;;1.90;0.70;;;;;;;;;;5065697;28;20033;-82
2021/10/24 02:35:20;;;;;;;1.83;0.82;;;;;;;;;;5068236;28;20419;-81
2021/10/24 02:37:47;;;;;;;2.40;0.95;;;;;;;;;;5066539;28;20077;-81
2021/10/24 02:40:14;;;;;;;2.58;0.82;;;;;;;;;;5067968;28;20086;-81
2021/10/24 02:42:40;;;;;;;1.23;0.70;;;;;;;;;;5064453;28;20032;-82
2021/10/24 02:45:07;;;;;;;2.42;0.80;;;;;;;;;;5068082;28;20036;-83
2021/10/24 02:47:34;;;;;;;3.25;1.20;;;;;;;;;;5064812;28;20063;-82
2021/10/24 02:50:00;;;;;;;1.92;1.02;;;;;;;;;;5067889;28;20511;-82
2021/10/24 02:52:26;;;;;;;2.22;0.82;;;;;;;;;;5069392;28;20067;-82
2021/10/24 02:54:53;;;;;;;2.83;0.70;;;;;;;;;;5066978;28;20642;-82
2021/10/24 02:57:19;;;;;;;2.53;0.90;;;;;;;;;;5063860;28;20063;-82
2021/10/24 02:59:46;;;;;;;2.88;0.93;;;;;;;;;;5068750;28;20044;-82
2021/10/24 03:02:12;;;;;;;2.75;0.90;;;;;;;;;;5068346;28;20060;-82
2021/10/24 03:04:38;;;;;;;2.47;0.95;;;;;;;;;;5065670;28;20029;-81
2021/10/24 03:07:05;;;;;;;2.63;0.82;;;;;;;;;;5060852;28;20107;-81
2021/10/24 03:09:31;;;;;;;2.13;0.80;;;;;;;;;;5062509;28;20044;-81
2021/10/24 03:11:58;;;;;;;2.85;0.75;;;;;;;;;;5063206;28;20473;-81
2021/10/24 03:14:24;;;;;;;2.80;0.95;;;;;;;;;;5073920;28;20101;-83
2021/10/24 03:16:50;;;;;;;1.50;0.88;;;;;;;;;;5067820;28;20056;-82
2021/10/24 03:19:17;;;;;;;3.15;1.00;;;;;;;;;;5064547;28;20539;-81
2021/10/24 03:21:43;;;;;;;2.72;0.90;;;;;;;;;;5062496;28;20048;-80
2021/10/24 03:24:10;;;;;;;2.15;0.90;;;;;;;;;;5067153;28;20059;-81
2021/10/24 03:26:36;;;;;;;1.98;0.90;;;;;;;;;;5065485;28;20056;-81
2021/10/24 03:29:02;;;;;;;2.15;0.77;;;;;;;;;;5066149;28;20581;-82
2021/10/24 03:31:29;;;;;;;4.57;0.90;;;;;;;;;;5061456;28;20071;-81
2021/10/24 03:33:55;;;;;;;3.10;0.90;;;;;;;;;;5066097;28;20060;-82
2021/10/24 03:36:22;;;;;;;3.08;0.85;;;;;;;;;;5065699;28;20028;-82
2021/10/24 03:38:48;;;;;;;2.55;0.90;;;;;;;;;;5065116;28;20067;-82
2021/10/24 03:41:15;;;;;;;1.48;0.63;;;;;;;;;;5067571;28;20663;-81
2021/10/24 03:43:41;;;;;;;1.92;0.80;;;;;;;;;;5061938;28;20523;-82
2021/10/24 03:46:08;;;;;;;1.77;0.80;;;;;;;;;;5065372;28;20057;-80
2021/10/24 03:48:34;;;;;;;1.80;0.80;;;;;;;;;;5066376;28;20389;-82
2021/10/24 03:51:01;;;;;;;2.17;0.93;;;;;;;;;;5064292;28;20029;-82
2021/10/24 03:53:27;;;;;;;1.52;0.60;;;;;;;;;;5070415;28;20068;-82
2021/10/24 03:55:53;;;;;;;2.05;0.77;;;;;;;;;;5066465;28;20356;-83
2021/10/24 03:58:20;;;;;;;1.73;0.82;;;;;;;;;;5065637;28;20052;-82
2021/10/24 04:00:46;;;;;;;2.38;0.70;;;;;;;;;;5058861;28;20063;-83
2021/10/24 04:03:13;;;;;;;1.10;0.60;;;;;;;;;;5063955;28;20040;-82
2021/10/24 04:05:44;;;;;;;2.20;1.10;;;;;;;;;;5060905;28;20477;-82
2021/10/24 04:08:10;;;;;;;1.50;0.77;;;;;;;;;;5061198;28;20395;-81
2021/10/24 04:10:37;;;;;;;1.63;0.60;;;;;;;;;;5064191;28;20024;-81
2021/10/24 04:13:03;;;;;;;1.45;0.80;;;;;;;;;;5067529;28;20610;-82
2021/10/24 04:15:29;;;;;;;2.38;0.70;;;;;;;;;;5066577;28;20048;-81
2021/10/24 04:17:56;;;;;;;3.00;0.70;;;;;;;;;;5068354;28;20059;-82
2021/10/24 04:20:22;;;;;;;1.27;0.60;;;;;;;;;;5066245;28;20060;-82
2021/10/24 04:22:50;;;;;;;2.08;0.90;;;;;;;;;;5060654;28;20071;-82
2021/10/24 04:25:17;;;;;;;2.60;0.70;;;;;;;;;;5066249;28;20577;-81
2021/10/24 04:27:44;;;;;;;2.22;0.70;;;;;;;;;;5059650;28;20093;-82
2021/10/24 04:30:11;;;;;;;2.40;0.90;;;;;;;;;;5063912;28;20053;-82
2021/10/24 04:32:38;;;;;;;1.83;0.80;;;;;;;;;;5065661;28;20064;-82
2021/10/24 04:35:05;;;;;;;1.95;0.80;;;;;;;;;;5067822;28;20434;-81
2021/10/24 04:37:32;;;;;;;1.58;0.82;;;;;;;;;;5068514;28;20981;-81
2021/10/24 04:39:58;;;;;;;1.83;0.90;;;;;;;;;;5065180;28;20510;-82
2021/10/24 04:42:25;;;;;;;2.17;0.70;;;;;;;;;;5040405;28;20052;-82
2021/10/24 04:44:51;;;;;;;1.15;0.50;;;;;;;;;;5063107;28;20052;-82
2021/10/24 04:47:18;;;;;;;1.15;0.60;;;;;;;;;;5058557;28;20053;-82
2021/10/24 04:49:44;;;;;;;2.10;0.77;;;;;;;;;;5072330;28;20068;-81
2021/10/24 04:52:10;;;;;;;1.77;0.63;;;;;;;;;;5063261;28;20032;-81
2021/10/24 04:54:37;;;;;;;1.33;0.60;;;;;;;;;;5066259;28;20029;-82
2021/10/24 04:57:03;;;;;;;2.63;0.77;;;;;;;;;;5063143;28;20048;-81
2021/10/24 04:59:30;;;;;;;2.22;0.80;;;;;;;;;;5058749;28;20086;-82
2021/10/24 05:01:57;;;;;;;1.77;0.63;;;;;;;;;;5061424;28;20044;-82
2021/10/24 05:04:23;;;;;;;1.58;0.63;;;;;;;;;;5062928;28;20071;-82
2021/10/24 05:06:49;;;;;;;1.30;0.70;;;;;;;;;;5066791;28;20057;-81
2021/10/24 05:09:17;;;;;;;1.65;0.73;;;;;;;;;;5065065;28;20064;-82
2021/10/24 05:11:43;;;;;;;1.60;0.63;;;;;;;;;;5066660;28;20094;-82
2021/10/24 05:14:10;;;;;;;1.73;0.70;;;;;;;;;;5064558;28;20057;-82
2021/10/24 05:16:37;;;;;;;1.83;0.57;;;;;;;;;;5067853;28;20048;-82
2021/10/24 05:19:03;;;;;;;0.93;0.47;;;;;;;;;;5069893;28;20064;-82
2021/10/24 05:21:33;;;;;;;1.38;0.47;;;;;;;;;;5064264;28;20056;-82
2021/10/24 05:24:00;;;;;;;2.10;0.68;;;;;;;;;;5058425;28;20519;-83
2021/10/24 05:26:26;;;;;;;2.22;0.90;;;;;;;;;;5066422;28;20506;-83
2021/10/24 05:28:53;;;;;;;1.20;0.90;;;;;;;;;;5067545;28;20056;-82
2021/10/24 05:31:19;;;;;;;2.00;0.60;;;;;;;;;;5069192;28;20105;-83
2021/10/24 05:33:47;;;;;;;2.75;0.80;;;;;;;;;;5066510;28;20045;-83
2021/10/24 05:36:13;;;;;;;2.38;0.75;;;;;;;;;;5068998;28;20527;-82
2021/10/24 05:38:39;;;;;;;1.40;0.60;;;;;;;;;;5058864;28;20048;-83
2021/10/24 05:41:06;;;;;;;1.63;0.70;;;;;;;;;;5068659;28;20064;-83
2021/10/24 05:43:32;;;;;;;2.58;1.00;;;;;;;;;;5061921;28;20064;-83
2021/10/24 05:45:59;;;;;;;2.47;0.82;;;;;;;;;;5070394;28;20519;-83
2021/10/24 05:48:25;;;;;;;1.35;0.43;;;;;;;;;;5066494;28;20064;-83
2021/10/24 05:50:52;;;;;;;1.73;0.52;;;;;;;;;;5067804;28;20052;-83
2021/10/24 05:53:18;;;;;;;1.88;0.70;;;;;;;;;;5069694;28;20515;-83
2021/10/24 05:55:46;;;;;;;1.70;0.60;;;;;;;;;;5066894;28;20067;-83
2021/10/24 05:58:13;;;;;;;1.15;0.60;;;;;;;;;;5055327;28;20122;-84
2021/10/24 06:00:39;;;;;;;1.80;0.60;;;;;;;;;;5055732;28;20037;-83
2021/10/24 06:03:06;;;;;;;1.70;0.70;;;;;;;;;;5067920;28;20140;-83
2021/10/24 06:05:33;;;;;;;2.15;0.80;;;;;;;;;;5065816;28;20057;-83
2021/10/24 06:08:03;;;;;;;2.70;0.88;;;;;;;;;;5061594;28;20452;-82
2021/10/24 06:10:40;;;;;;;1.67;0.75;;;;;;;;;;5067230;28;20052;-82
2021/10/24 06:13:09;;;;;;;2.58;0.80;;;;;;;;;;5062889;28;20037;-83
2021/10/24 06:15:39;;;;;;;1.20;0.60;;;;;;;;;;5070338;28;20055;-82
2021/10/24 06:18:06;;;;;;;2.67;0.70;;;;;;;;;;5066114;28;20556;-83
2021/10/24 06:20:33;;;;;;;2.35;0.60;;;;;;;;;;5067348;28;20086;-82
2021/10/24 06:22:59;;;;;;;2.10;0.70;;;;;;;;;;5058495;28;20055;-84
2021/10/24 06:25:26;;;;;;;2.30;0.80;;;;;;;;;;5068713;28;20125;-83
2021/10/24 06:27:53;;;;;;;1.90;0.63;;;;;;;;;;5071199;28;20153;-83
2021/10/24 06:30:23;;;;;;;1.50;0.60;;;;;;;;;;5066507;28;20060;-83
2021/10/24 06:32:50;;;;;;;2.63;1.00;;;;;;;;;;5066977;28;20083;-83
2021/10/24 06:35:17;;;;;;;2.30;0.60;;;;;;;;;;5072849;28;20180;-83
2021/10/24 06:37:44;;;;;;;1.02;0.50;;;;;;;;;;5059588;28;20041;-82
2021/10/24 06:40:11;;;;;;;2.03;0.85;;;;;;;;;;5069657;28;20499;-82
2021/10/24 06:42:38;;;;;;;1.75;0.60;;;;;;;;;;5076847;28;20097;-82
2021/10/24 06:45:06;;;;;;;3.70;0.95;;;;;;;;;;5068590;28;20052;-83
2021/10/24 06:47:32;;;;;;;2.40;0.80;;;;;;;;;;5064046;28;20094;-83
2021/10/24 06:50:00;;;;;;;1.52;0.60;;;;;;;;;;5066342;28;20701;-83
2021/10/24 06:52:27;;;;;;;2.40;0.90;;;;;;;;;;5070876;28;20407;-83
2021/10/24 06:54:53;;;;;;;2.13;0.60;;;;;;;;;;5068537;28;20503;-83
2021/10/24 06:57:21;;;;;;;1.70;0.75;;;;;;;;;;5069953;28;20063;-83
2021/10/24 06:59:48;;;;;;;1.58;0.50;;;;;;;;;;5063332;28;20121;-83
2021/10/24 07:02:15;;;;;;;1.45;0.70;;;;;;;;;;5066968;28;20113;-83
2021/10/24 07:04:41;;;;;;;2.60;0.60;;;;;;;;;;5063117;28;20052;-83
2021/10/24 07:07:08;;;;;;;1.10;0.55;;;;;;;;;;5059850;28;20041;-84
2021/10/24 07:09:34;;;;;;;1.50;0.50;;;;;;;;;;5050900;28;20078;-82
2021/10/24 07:12:00;;;;;;;3.33;0.77;;;;;;;;;;5066708;28;20083;-84
2021/10/24 07:14:27;;;;;;;2.00;0.70;;;;;;;;;;5068214;28;20056;-83
2021/10/24 07:16:53;;;;;;;0.98;0.50;;;;;;;;;;5066316;28;20175;-83
2021/10/24 07:19:20;;;;;;;1.60;0.60;;;;;;;;;;5060923;28;20041;-83
2021/10/24 07:21:46;;;;;;;1.75;0.60;;;;;;;;;;5068059;28;20136;-83
2021/10/24 07:24:13;;;;;;;3.22;0.60;;;;;;;;;;5062746;28;20029;-83
2021/10/24 07:26:40;;;;;;;1.58;0.65;;;;;;;;;;5070287;28;20056;-83
2021/10/24 07:29:06;;;;;;;3.42;0.70;;;;;;;;;;5068152;28;20068;-83
2021/10/24 07:31:33;;;;;;;2.42;0.70;;;;;;;;;;5062350;28;20695;-83
2021/10/24 07:33:59;;;;;;;1.85;0.65;;;;;;;;;;5068829;28;20048;-83
2021/10/24 07:36:25;;;;;;;1.90;0.60;;;;;;;;;;5056354;28;20052;-83
2021/10/24 07:38:52;;;;;;;1.52;0.60;;;;;;;;;;5068327;28;20056;-83
2021/10/24 07:41:18;;;;;;;2.75;0.50;;;;;;;;;;5066999;28;20064;-84
2021/10/24 07:43:45;;;;;;;2.55;0.70;;;;;;;;;;5057606;28;20106;-83
2021/10/24 07:46:11;;;;;;;1.63;0.77;;;;;;;;;;5074438;28;20056;-83
2021/10/24 07:48:38;;;;;;;1.15;0.45;;;;;;;;;;5061228;28;20060;-83
2021/10/24 07:51:04;;;;;;;1.48;0.60;;;;;;;;;;5056873;28;20452;-84
2021/10/24 07:53:30;;;;;;;2.30;0.60;;;;;;;;;;5068125;28;20052;-83
2021/10/24 07:56:02;;;;;;;1.75;0.77;;;;;;;;;;5070112;28;20053;-83
2021/10/24 07:58:29;;;;;;;2.22;0.60;;;;;;;;;;5067268;28;20447;-84
2021/10/24 08:00:56;;;;;;;1.33;0.70;;;;;;;;;;5062403;28;20084;-83
2021/10/24 08:03:23;;;;;;;2.25;0.80;;;;;;;;;;5066348;28;20068;-83
2021/10/24 08:05:49;;;;;;;3.33;0.80;;;;;;;;;;5063995;28;20502;-84
2021/10/24 08:08:16;;;;;;;2.53;0.90;;;;;;;;;;5068684;28;20060;-83
2021/10/24 08:10:42;;;;;;;1.67;0.70;;;;;;;;;;5060391;28;20696;-83
2021/10/24 08:13:09;;;;;;;2.35;0.70;;;;;;;;;;5068320;28;20060;-83
2021/10/24 08:15:35;;;;;;;1.25;0.50;;;;;;;;;;5063141;28;20106;-82
2021/10/24 08:18:01;;;;;;;1.60;0.57;;;;;;;;;;5060288;28;20094;-83
2021/10/24 08:20:28;;;;;;;1.63;0.60;;;;;;;;;;5063198;28;20469;-82
2021/10/24 08:22:54;;;;;;;2.13;0.70;;;;;;;;;;5068196;28;20425;-83
2021/10/24 08:25:21;;;;;;;1.60;0.65;;;;;;;;;;5067836;28;20068;-82
2021/10/24 08:27:47;;;;;;;2.00;0.68;;;;;;;;;;5063722;28;20076;-83
2021/10/24 08:30:14;;;;;;;1.55;0.80;;;;;;;;;;5060397;28;20127;-83
2021/10/24 08:32:41;;;;;;;2.05;0.65;;;;;;;;;;5063612;28;20437;-83
2021/10/24 08:35:08;;;;;;;2.10;0.63;;;;;;;;;;5058873;28;20121;-83
2021/10/24 08:37:35;;;;;;;1.33;0.60;;;;;;;;;;5063868;28;20056;-82
2021/10/24 08:40:03;;;;;;;2.55;0.63;;;;;;;;;;5064218;28;20064;-82
2021/10/24 08:42:32;;;;;;;2.15;0.85;;;;;;;;;;5066146;28;20125;-81
2021/10/24 08:44:59;;;;;;;1.50;0.57;;;;;;;;;;5064760;28;20079;-83
2021/10/24 08:47:26;;;;;;;1.27;0.65;;;;;;;;;;5064459;28;20056;-83
2021/10/24 08:49:53;;;;;;;3.33;0.70;;;;;;;;;;5068760;28;20040;-83
2021/10/24 08:52:23;;;;;;;1.55;0.50;;;;;;;;;;5068236;28;20063;-83
2021/10/24 08:54:53;;;;;;;2.20;0.90;;;;;;;;;;5062294;28;20061;-83
2021/10/24 08:57:22;;;;;;;2.00;0.60;;;;;;;;;;5068153;28;20064;-83
2021/10/24 08:59:49;;;;;;;2.80;0.57;;;;;;;;;;5069266;28;20064;-83
2021/10/24 09:02:15;;;;;;;1.95;0.80;;;;;;;;;;5068364;28;20068;-83
2021/10/24 09:05:00;;;;;;;0.88;0.50;;;;;;;;;;5071578;28;20100;-84
2021/10/24 09:07:37;;;;;;;2.78;0.70;;;;;;;;;;5066000;28;20082;-83
2021/10/24 09:10:03;;;;;;;2.03;0.70;;;;;;;;;;5070286;28;20154;-83
2021/10/24 09:12:29;;;;;;;1.52;0.60;;;;;;;;;;5066945;28;20028;-81
2021/10/24 09:14:56;;;;;;;1.60;0.80;;;;;;;;;;5068881;28;20060;-83
2021/10/24 09:17:24;;;;;;;2.20;0.70;;;;;;;;;;5070404;28;20041;-83
2021/10/24 09:19:52;;;;;;;1.98;0.63;;;;;;;;;;5070135;28;20063;-83
2021/10/24 09:22:18;;;;;;;1.20;0.50;;;;;;;;;;5070860;28;20102;-83
2021/10/24 09:25:01;;;;;;;1.52;0.63;;;;;;;;;;5072084;28;20036;-84
2021/10/24 09:27:28;;;;;;;2.70;0.70;;;;;;;;;;5060224;28;20076;-83
2021/10/24 09:29:54;;;;;;;2.67;0.88;;;;;;;;;;5067514;28;20063;-83
2021/10/24 09:32:21;;;;;;;1.15;0.50;;;;;;;;;;5063525;28;20448;-82
2021/10/24 09:35:00;;;;;;;2.10;0.70;;;;;;;;;;5059843;28;20052;-83
2021/10/24 09:37:27;;;;;;;0.93;0.68;;;;;;;;;;5061684;28;20629;-83
2021/10/24 09:39:53;;;;;;;1.75;0.60;;;;;;;;;;5058098;28;20032;-83
2021/10/24 09:42:22;;;;;;;1.88;0.70;;;;;;;;;;5063838;28;20106;-83
2021/10/24 09:45:00;;;;;;;1.50;0.70;;;;;;;;;;5067504;28;20068;-82
2021/10/24 09:47:27;;;;;;;1.73;0.50;;;;;;;;;;5060480;28;20040;-83
2021/10/24 09:49:53;;;;;;;1.60;0.60;;;;;;;;;;5059181;28;20069;-82
2021/10/24 09:52:30;;;;;;;1.50;0.70;;;;;;;;;;5061451;28;20025;-82
2021/10/24 09:54:57;;;;;;;0.98;0.70;;;;;;;;;;5057088;28;21204;-83
2021/10/24 09:57:23;;;;;;;1.65;0.57;;;;;;;;;;5065692;28;20048;-82
2021/10/24 09:59:54;;;;;;;1.85;1.05;;;;;;;;;;5066106;28;20048;-83
2021/10/24 10:02:21;;;;;;;2.35;0.57;;;;;;;;;;5066587;28;20137;-83
2021/10/24 10:04:47;;;;;;;1.50;0.52;;;;;;;;;;5069298;28;20045;-82
2021/10/24 10:07:14;;;;;;;2.13;0.70;;;;;;;;;;5069235;28;20113;-82
2021/10/24 10:09:41;;;;;;;2.03;0.82;;;;;;;;;;5072009;28;20025;-83
2021/10/24 10:12:08;;;;;;;1.23;0.60;;;;;;;;;;5061617;28;20029;-84
2021/10/24 10:14:36;;;;;;;2.50;0.63;;;;;;;;;;5067098;28;20032;-82
2021/10/24 10:17:03;;;;;;;2.10;0.70;;;;;;;;;;5066102;28;20093;-83
2021/10/24 10:19:31;;;;;;;2.80;0.80;;;;;;;;;;5069262;28;20098;-83
2021/10/24 10:21:57;;;;;;;1.33;0.65;;;;;;;;;;5071973;28;20492;-83
2021/10/24 10:24:36;;;;;;;2.67;0.68;;;;;;;;;;5068399;28;20036;-83
2021/10/24 10:27:03;;;;;;;1.52;0.63;;;;;;;;;;5052031;28;20033;-82
2021/10/24 10:29:50;;;;;;;1.80;0.60;;;;;;;;;;5067272;28;20039;-80
2021/10/24 10:32:17;;;;;;;0.77;0.50;;;;;;;;;;5057204;28;20048;-83
2021/10/24 10:35:00;;;;;;;3.03;0.82;;;;;;;;;;5069821;28;20032;-82
2021/10/24 10:37:51;;;;;;;2.10;0.77;;;;;;;;;;5077099;28;20488;-83
2021/10/24 10:40:19;;;;;;;2.90;0.85;;;;;;;;;;5071958;28;20041;-83
2021/10/24 10:42:45;;;;;;;1.98;0.90;;;;;;;;;;5061242;28;20052;-82
2021/10/24 10:45:15;;;;;;;1.77;0.80;;;;;;;;;;5068646;28;20040;-83
2021/10/24 10:47:54;;;;;;;2.95;0.70;;;;;;;;;;5067755;28;20086;-82
2021/10/24 10:50:38;;;;;;;2.83;0.75;;;;;;;;;;5072822;28;20037;-83
2021/10/24 10:53:16;;;;;;;1.80;0.73;;;;;;;;;;5062293;28;20028;-82
2021/10/24 10:55:57;;;;;;;1.90;0.90;;;;;;;;;;5063495;28;20028;-83
2021/10/24 10:58:23;;;;;;;;;;;;;;;;;;5072932;28;20094;-82
2021/10/24 11:00:56;;;;;;;1.55;0.70;;;;;;;;;;5069278;28;20424;-83
2021/10/24 11:03:44;;;;;;;2.53;0.90;;;;;;;;;;5065716;28;20029;-83
2021/10/24 11:06:11;;;;;;;3.83;0.70;;;;;;;;;;5067202;28;20085;-83
2021/10/24 11:08:48;;;;;;;1.80;0.68;;;;;;;;;;5070406;28;20040;-83
2021/10/24 11:11:15;;;;;;;1.58;0.50;;;;;;;;;;5066029;28;20028;-83
2021/10/24 11:13:42;;;;;;;1.75;0.63;;;;;;;;;;5069553;28;20090;-82
2021/10/24 11:16:27;;;;;;;1.73;0.50;;;;;;;;;;5062486;28;20040;-82
2021/10/24 11:18:54;;;;;;;2.40;0.95;;;;;;;;;;5065898;28;20037;-82
2021/10/24 11:21:30;;;;;;;2.92;0.90;;;;;;;;;;5063364;28;20044;-82
2021/10/24 11:23:56;;;;;;;1.23;0.63;;;;;;;;;;5060127;28;21208;-83
2021/10/24 11:26:23;;;;;;;1.02;0.60;;;;;;;;;;5064591;28;20043;-83
2021/10/24 11:28:49;;;;;;;1.25;0.57;;;;;;;;;;5064006;28;20041;-83
2021/10/24 11:31:23;;;;;;;2.58;0.80;;;;;;;;;;5067408;28;20666;-82
2021/10/24 11:33:50;;;;;;;1.48;0.70;;;;;;;;;;5061103;28;20040;-82
2021/10/24 11:36:27;;;;;;;2.17;0.63;;;;;;;;;;5068727;28;20373;-82
2021/10/24 11:38:57;;;;;;;2.90;0.77;;;;;;;;;;5060355;28;20090;-82
2021/10/24 11:41:24;;;;;;;3.28;0.80;;;;;;;;;;5064266;28;20496;-82
2021/10/24 11:44:04;;;;;;;2.28;0.68;;;;;;;;;;5066786;28;20596;-82
2021/10/24 11:46:31;;;;;;;1.93;0.87;;;;;;;;;;5062757;28;20063;-81
2021/10/24 11:49:03;;;;;;;1.77;0.80;;;;;;;;;;5058669;28;20781;-82
2021/10/24 11:51:30;;;;;;;2.08;0.70;;;;;;;;;;5058784;28;20434;-82
2021/10/24 11:53:56;;;;;;;2.92;0.80;;;;;;;;;;5063236;28;20040;-83
2021/10/24 12:01:41;;;;;;;2.08;0.70;;;;;;;;;;5055892;28;20095;-82
2021/10/24 12:04:14;;;;;;;2.38;0.60;;;;;;;;;;5062534;28;20488;-83
2021/10/24 12:06:48;;;;;;;2.20;0.60;;;;;;;;;;5061337;28;20048;-82
2021/10/24 12:09:14;;;;;;;2.40;0.95;;;;;;;;;;5065146;28;20041;-83
2021/10/24 12:11:43;;;;;;;2.05;0.80;;;;;;;;;;5064164;28;20033;-83
2021/10/24 12:14:13;;;;;;;2.97;0.90;;;;;;;;;;5068978;28;20056;-83
2021/10/24 12:16:47;;;;;;;2.17;0.70;;;;;;;;;;5066972;28;20055;-83
2021/10/24 12:19:20;;;;;;;2.38;0.80;;;;;;;;;;5067170;28;20029;-83
2021/10/24 12:22:00;;;;;;;1.70;0.85;;;;;;;;;;5064471;28;20098;-83
2021/10/24 12:24:31;;;;;;;3.15;0.70;;;;;;;;;;5066166;28;20503;-81
2021/10/24 12:27:05;;;;;;;1.90;0.70;;;;;;;;;;5066779;28;20622;-81
2021/10/24 12:29:31;;;;;;;2.53;0.82;;;;;;;;;;5072335;28;20411;-83
2021/10/24 12:32:13;;;;;;;1.88;0.90;;;;;;;;;;5069736;28;20041;-82
2021/10/24 12:34:57;;;;;;;2.20;0.73;;;;;;;;;;5060075;28;20110;-82
2021/10/24 12:37:24;;;;;;;1.45;0.70;;;;;;;;;;5068425;28;20056;-79
2021/10/24 12:40:10;;;;;;;1.98;0.50;;;;;;;;;;5060410;28;20061;-79
2021/10/24 12:42:36;;;;;;;2.13;0.98;;;;;;;;;;5068460;28;20072;-79
2021/10/24 12:45:13;;;;;;;2.38;0.73;;;;;;;;;;5067691;28;20052;-80
2021/10/24 12:47:39;;;;;;;1.85;0.70;;;;;;;;;;5074594;28;20024;-75
2021/10/24 12:50:06;;;;;;;2.13;0.60;;;;;;;;;;5072115;28;20032;-75
2021/10/24 12:52:34;;;;;;;1.60;0.80;;;;;;;;;;5059752;28;20593;-75
2021/10/24 12:55:04;;;;;;;1.45;0.50;;;;;;;;;;5080503;28;20028;-76
2021/10/24 12:57:30;;;;;;;3.05;0.73;;;;;;;;;;5087733;28;20016;-75
2021/10/24 12:59:56;;;;;;;3.53;0.80;;;;;;;;;;5084154;28;20147;-75
2021/10/24 13:02:23;;;;;;;1.15;0.50;;;;;;;;;;5084792;28;20041;-76
2021/10/24 13:04:50;;;;;;;1.85;0.73;;;;;;;;;;5075046;28;20085;-75
2021/10/24 13:07:16;;;;;;;3.13;0.80;;;;;;;;;;5067363;28;20021;-76
2021/10/24 13:09:42;;;;;;;1.30;0.80;;;;;;;;;;5062968;28;20060;-76
2021/10/24 13:12:09;;;;;;;1.88;0.85;;;;;;;;;;5067445;28;20098;-76
2021/10/24 13:14:35;;;;;;;2.05;0.73;;;;;;;;;;5061528;28;20501;-76
2021/10/24 13:17:02;;;;;;;2.10;1.05;;;;;;;;;;5067389;28;20052;-76
2021/10/24 13:19:28;;;;;;;2.70;0.70;;;;;;;;;;5063747;28;20048;-77
2021/10/24 13:24:21;;;;;;;1.27;0.70;;;;;;;;;;5065137;28;20445;-76
2021/10/24 13:26:49;;;;;;;2.10;0.90;;;;;;;;;;5062660;28;20526;-74
2021/10/24 13:29:16;;;;;;;2.35;1.00;;;;;;;;;;5065009;28;20648;-77
2021/10/24 13:31:43;;;;;;;2.50;0.90;;;;;;;;;;5057904;28;20079;-76
2021/10/24 13:34:09;;;;;;;1.45;0.77;;;;;;;;;;5058517;28;20064;-75
2021/10/24 13:36:35;;;;;;;1.70;0.80;;;;;;;;;;5059358;28;20515;-76
2021/10/24 13:39:03;;;;;;;3.88;1.08;;;;;;;;;;5059903;28;20032;-76
2021/10/24 13:41:29;;;;;;;2.65;0.85;;;;;;;;;;5060949;28;20067;-76
2021/10/24 13:43:56;;;;;;;2.45;0.70;;;;;;;;;;5059479;28;20071;-75
2021/10/24 13:46:22;;;;;;;2.53;0.80;;;;;;;;;;5061851;28;20052;-75
2021/10/24 13:48:49;;;;;;;0.85;0.60;;;;;;;;;;5060997;28;20025;-75
2021/10/24 13:51:15;;;;;;;1.65;0.77;;;;;;;;;;5063334;28;20060;-76
2021/10/24 13:53:42;;;;;;;4.07;1.00;;;;;;;;;;5058151;28;20929;-76
2021/10/24 13:56:09;;;;;;;2.35;0.90;;;;;;;;;;5061246;28;20036;-75
2021/10/24 13:58:38;;;;;;;1.48;0.75;;;;;;;;;;5057309;28;20064;-77
2021/10/24 14:01:04;;;;;;;1.85;1.00;;;;;;;;;;5059950;28;20064;-76
2021/10/24 14:03:31;;;;;;;1.80;0.80;;;;;;;;;;5061692;28;20083;-75
2021/10/24 14:05:57;;;;;;;4.35;0.90;;;;;;;;;;5062798;28;20060;-76
2021/10/24 14:08:29;;;;;;;1.67;0.80;;;;;;;;;;5065685;28;20070;-76
2021/10/24 14:10:55;;;;;;;1.75;0.82;;;;;;;;;;5063360;28;20064;-75
2021/10/24 14:13:22;;;;;;;2.50;0.93;;;;;;;;;;5063019;28;20068;-76
2021/10/24 14:15:48;;;;;;;3.45;1.00;;;;;;;;;;5062005;28;20091;-75
2021/10/24 14:18:15;;;;;;;2.05;1.05;;;;;;;;;;5064945;28;20064;-76
2021/10/24 14:20:41;;;;;;;2.10;0.90;;;;;;;;;;5070296;28;20055;-75
2021/10/24 14:23:08;;;;;;;2.90;0.80;;;;;;;;;;5062903;28;20056;-76
2021/10/24 14:25:34;;;;;;;1.70;0.88;;;;;;;;;;5071060;28;20052;-76
2021/10/24 14:28:01;;;;;;;2.28;0.88;;;;;;;;;;5063028;28;20464;-75
2021/10/24 14:30:27;;;;;;;2.95;0.90;;;;;;;;;;5066560;28;20075;-77
2021/10/24 14:32:54;;;;;;;1.20;0.70;;;;;;;;;;5058714;28;20036;-77
2021/10/24 14:35:20;;;;;;;2.88;0.95;;;;;;;;;;5064005;28;20056;-75
2021/10/24 14:37:47;;;;;;;2.10;0.70;;;;;;;;;;5058619;28;20075;-75
2021/10/24 14:40:13;;;;;;;2.35;0.63;;;;;;;;;;5061424;28;20064;-79
2021/10/24 14:42:40;;;;;;;3.83;0.82;;;;;;;;;;5065374;28;20063;-80
2021/10/24 14:45:07;;;;;;;2.47;1.10;;;;;;;;;;5066487;28;20052;-79
2021/10/24 14:47:33;;;;;;;4.03;1.23;;;;;;;;;;5054704;28;20063;-79
2021/10/24 14:50:00;;;;;;;2.40;0.95;;;;;;;;;;5066852;28;20056;-79
2021/10/24 14:52:27;;;;;;;1.65;0.80;;;;;;;;;;5061080;28;20067;-80
2021/10/24 14:54:57;;;;;;;1.27;0.70;;;;;;;;;;5065946;28;20067;-79